Time,TemperatureF,DewpointF,PressureIn,WindDirection,WindDirectionDegrees,WindSpeedMPH,WindSpeedGustMPH,Humidity,HourlyPrecipIn,Conditions,Clouds,dailyrainin,SoftwareType,DateUTC
2013-06-26 00:00:00,65.4,63.3,30.04,South,173,0.0,0.0,93,0.00,,,0.00,Wunderground v.1.15,2013-06-26 04:00:00,
2013-06-26 00:05:00,65.2,63.1,30.04,South,173,0.0,0.0,93,0.00,,,0.00,Wunderground v.1.15,2013-06-26 04:05:00,
2013-06-26 00:10:00,65.2,63.1,30.04,South,173,0.0,0.0,93,0.00,,,0.00,Wunderground v.1.15,2013-06-26 04:10:00,
2013-06-26 00:15:00,65.0,62.9,30.04,South,173,0.0,0.0,93,0.00,,,0.00,Wunderground v.1.15,2013-06-26 04:15:00,
2013-06-26 00:20:00,64.9,62.8,30.03,South,173,0.0,0.0,93,0.00,,,0.00,Wunderground v.1.15,2013-06-26 04:20:00,
2013-06-26 00:25:00,64.8,62.7,30.03,South,173,0.0,0.0,93,0.00,,,0.00,Wunderground v.1.15,2013-06-26 04:25:00,
2013-06-26 00:30:00,64.6,62.5,30.03,South,173,0.0,0.0,93,0.00,,,0.00,Wunderground v.1.15,2013-06-26 04:30:00,
2013-06-26 00:40:00,64.3,62.2,30.03,South,173,0.0,0.0,93,0.00,,,0.00,Wunderground v.1.15,2013-06-26 04:40:00,
2013-06-26 00:45:00,64.2,62.1,30.03,South,173,0.0,0.0,93,0.00,,,0.00,Wunderground v.1.15,2013-06-26 04:45:00,
2013-06-26 00:55:00,64.0,62.2,30.03,South,173,0.0,0.0,94,0.00,,,0.00,Wunderground v.1.15,2013-06-26 04:55:00,
2013-06-26 01:00:00,63.9,62.1,30.03,South,173,0.0,0.0,94,0.00,,,0.00,Wunderground v.1.15,2013-06-26 05:00:00,
2013-06-26 01:05:00,63.8,62.0,30.03,South,173,0.0,0.0,94,0.00,,,0.00,Wunderground v.1.15,2013-06-26 05:05:00,
2013-06-26 01:15:00,63.7,61.9,30.02,South,173,0.0,0.0,94,0.00,,,0.00,Wunderground v.1.15,2013-06-26 05:15:00,
2013-06-26 01:20:00,63.5,61.7,30.02,South,173,0.0,0.0,94,0.00,,,0.00,Wunderground v.1.15,2013-06-26 05:20:00,
2013-06-26 01:25:00,63.4,61.6,30.02,South,173,0.0,0.0,94,0.00,,,0.00,Wunderground v.1.15,2013-06-26 05:25:00,
2013-06-26 01:30:00,63.3,61.5,30.02,South,173,0.0,0.0,94,0.00,,,0.00,Wunderground v.1.15,2013-06-26 05:30:00,
2013-06-26 01:40:00,63.2,61.4,30.02,South,173,0.0,0.0,94,0.00,,,0.00,Wunderground v.1.15,2013-06-26 05:40:00,
2013-06-26 01:45:00,63.0,61.2,30.01,South,173,0.0,0.0,94,0.00,,,0.00,Wunderground v.1.15,2013-06-26 05:45:00,
2013-06-26 01:50:00,63.0,61.2,30.01,South,173,0.0,0.0,94,0.00,,,0.00,Wunderground v.1.15,2013-06-26 05:50:00,
2013-06-26 02:00:00,62.9,61.1,30.01,South,190,0.0,0.0,94,0.00,,,0.00,Wunderground v.1.15,2013-06-26 06:00:00,
2013-06-26 02:10:00,62.7,60.9,30.01,South,190,0.0,0.0,94,0.00,,,0.00,Wunderground v.1.15,2013-06-26 06:10:00,
2013-06-26 02:15:00,62.7,60.9,30.01,South,190,0.0,0.0,94,0.00,,,0.00,Wunderground v.1.15,2013-06-26 06:15:00,
2013-06-26 02:25:00,62.8,61.0,30.01,South,190,0.0,0.0,94,0.00,,,0.00,Wunderground v.1.15,2013-06-26 06:25:00,
2013-06-26 02:30:00,62.9,61.1,30.01,South,190,0.0,0.0,94,0.00,,,0.00,Wunderground v.1.15,2013-06-26 06:30:00,
2013-06-26 02:40:00,62.8,61.0,30.01,South,190,0.0,0.0,94,0.00,,,0.00,Wunderground v.1.15,2013-06-26 06:40:00,
2013-06-26 02:45:00,62.8,61.0,30.01,South,190,0.0,0.0,94,0.00,,,0.00,Wunderground v.1.15,2013-06-26 06:45:00,
2013-06-26 02:55:00,62.6,60.8,30.01,South,190,0.0,0.0,94,0.00,,,0.00,Wunderground v.1.15,2013-06-26 06:55:00,
2013-06-26 03:00:00,62.6,60.8,30.01,South,190,0.0,0.0,94,0.00,,,0.00,Wunderground v.1.15,2013-06-26 07:00:00,
2013-06-26 03:10:00,62.8,61.3,30.00,South,190,0.0,0.0,95,0.00,,,0.00,Wunderground v.1.15,2013-06-26 07:10:00,
2013-06-26 03:15:00,62.9,61.4,30.00,South,190,0.0,0.0,95,0.00,,,0.00,Wunderground v.1.15,2013-06-26 07:15:00,
2013-06-26 03:25:00,63.0,61.5,30.00,South,190,0.0,0.0,95,0.00,,,0.00,Wunderground v.1.15,2013-06-26 07:25:00,
2013-06-26 03:30:00,63.1,61.6,30.00,South,190,0.0,0.0,95,0.00,,,0.00,Wunderground v.1.15,2013-06-26 07:30:00,
2013-06-26 03:40:00,63.3,61.8,30.00,South,190,0.0,0.0,95,0.00,,,0.00,Wunderground v.1.15,2013-06-26 07:40:00,
2013-06-26 03:50:00,63.5,62.0,30.00,South,190,0.0,0.0,95,0.00,,,0.00,Wunderground v.1.15,2013-06-26 07:50:00,
2013-06-26 03:55:00,63.6,62.1,30.00,South,190,0.0,0.0,95,0.00,,,0.00,Wunderground v.1.15,2013-06-26 07:55:00,
2013-06-26 04:00:00,63.7,62.2,30.00,South,190,0.0,0.0,95,0.00,,,0.00,Wunderground v.1.15,2013-06-26 08:00:00,
2013-06-26 04:10:00,63.9,62.4,30.00,South,190,0.0,0.0,95,0.00,,,0.00,Wunderground v.1.15,2013-06-26 08:10:00,
2013-06-26 04:15:00,63.9,62.4,30.00,South,190,0.0,0.0,95,0.00,,,0.00,Wunderground v.1.15,2013-06-26 08:15:00,
2013-06-26 04:20:00,63.9,62.4,30.00,South,190,0.0,0.0,95,0.00,,,0.00,Wunderground v.1.15,2013-06-26 08:20:00,
2013-06-26 04:25:00,63.9,62.4,30.00,South,190,0.0,0.0,95,0.00,,,0.00,Wunderground v.1.15,2013-06-26 08:25:00,
2013-06-26 04:30:00,63.9,62.4,30.00,South,190,0.0,0.0,95,0.00,,,0.00,Wunderground v.1.15,2013-06-26 08:30:00,
2013-06-26 04:40:00,63.9,62.4,30.01,South,190,0.0,0.0,95,0.00,,,0.00,Wunderground v.1.15,2013-06-26 08:40:00,
2013-06-26 04:45:00,63.9,62.4,30.01,South,190,0.0,1.0,95,0.00,,,0.00,Wunderground v.1.15,2013-06-26 08:45:00,
2013-06-26 04:55:00,63.8,62.3,30.01,South,190,0.0,0.0,95,0.00,,,0.00,Wunderground v.1.15,2013-06-26 08:55:00,
2013-06-26 05:00:00,63.7,62.2,30.01,South,190,0.0,0.0,95,0.00,,,0.00,Wunderground v.1.15,2013-06-26 09:00:00,
2013-06-26 05:10:00,63.6,62.1,30.01,South,190,0.0,0.0,95,0.00,,,0.00,Wunderground v.1.15,2013-06-26 09:10:00,
2013-06-26 05:15:00,63.5,62.0,30.02,South,190,0.0,0.0,95,0.00,,,0.00,Wunderground v.1.15,2013-06-26 09:15:00,
2013-06-26 05:20:00,63.5,62.0,30.02,South,190,0.0,0.0,95,0.00,,,0.00,Wunderground v.1.15,2013-06-26 09:20:00,
2013-06-26 05:30:00,63.3,61.8,30.02,South,190,0.0,0.0,95,0.00,,,0.00,Wunderground v.1.15,2013-06-26 09:30:00,
2013-06-26 05:35:00,63.2,61.7,30.02,South,190,0.0,0.0,95,0.00,,,0.00,Wunderground v.1.15,2013-06-26 09:35:00,
2013-06-26 05:40:00,63.1,61.6,30.02,South,190,0.0,0.0,95,0.00,,,0.00,Wunderground v.1.15,2013-06-26 09:40:00,
2013-06-26 05:45:00,63.1,61.6,30.02,South,190,0.0,0.0,95,0.00,,,0.00,Wunderground v.1.15,2013-06-26 09:45:00,
2013-06-26 05:55:00,63.1,61.6,30.02,South,190,0.0,0.0,95,0.00,,,0.00,Wunderground v.1.15,2013-06-26 09:55:00,
2013-06-26 06:00:00,63.1,61.6,30.03,South,190,0.0,0.0,95,0.00,,,0.00,Wunderground v.1.15,2013-06-26 10:00:00,
2013-06-26 06:10:00,63.2,61.7,30.03,South,190,0.0,0.0,95,0.00,,,0.00,Wunderground v.1.15,2013-06-26 10:10:00,
2013-06-26 06:15:00,63.2,61.7,30.03,South,190,0.0,0.0,95,0.00,,,0.00,Wunderground v.1.15,2013-06-26 10:15:00,
2013-06-26 06:20:00,63.3,61.8,30.04,South,190,0.0,0.0,95,0.00,,,0.00,Wunderground v.1.15,2013-06-26 10:20:00,
2013-06-26 06:25:00,63.3,61.8,30.03,South,190,0.0,0.0,95,0.00,,,0.00,Wunderground v.1.15,2013-06-26 10:25:00,
2013-06-26 06:30:00,63.3,61.8,30.03,South,190,0.0,0.0,95,0.00,,,0.00,Wunderground v.1.15,2013-06-26 10:30:00,
2013-06-26 06:40:00,63.4,61.9,30.04,South,190,0.0,0.0,95,0.00,,,0.00,Wunderground v.1.15,2013-06-26 10:40:00,
2013-06-26 06:45:00,63.4,61.9,30.04,South,190,0.0,0.0,95,0.00,,,0.00,Wunderground v.1.15,2013-06-26 10:45:00,
2013-06-26 06:55:00,63.5,62.0,30.03,South,190,0.0,0.0,95,0.00,,,0.00,Wunderground v.1.15,2013-06-26 10:55:00,
2013-06-26 07:00:00,63.6,62.1,30.03,South,190,0.0,0.0,95,0.00,,,0.00,Wunderground v.1.15,2013-06-26 11:00:00,
2013-06-26 07:05:00,63.7,62.2,30.03,South,190,0.0,0.0,95,0.00,,,0.00,Wunderground v.1.15,2013-06-26 11:05:00,
2013-06-26 07:10:00,63.9,62.4,30.03,South,190,0.0,0.0,95,0.00,,,0.00,Wunderground v.1.15,2013-06-26 11:10:00,
2013-06-26 07:15:00,64.1,62.6,30.03,South,190,0.0,0.0,95,0.00,,,0.00,Wunderground v.1.15,2013-06-26 11:15:00,
2013-06-26 07:25:00,64.5,63.0,30.03,South,190,0.0,0.0,95,0.00,,,0.00,Wunderground v.1.15,2013-06-26 11:25:00,
2013-06-26 07:30:00,64.7,63.2,30.03,South,190,0.0,0.0,95,0.00,,,0.00,Wunderground v.1.15,2013-06-26 11:30:00,
2013-06-26 07:40:00,65.1,63.6,30.03,South,190,0.0,0.0,95,0.00,,,0.00,Wunderground v.1.15,2013-06-26 11:40:00,
2013-06-26 07:45:00,65.3,63.8,30.03,South,190,0.0,0.0,95,0.00,,,0.00,Wunderground v.1.15,2013-06-26 11:45:00,
2013-06-26 07:50:00,65.6,64.1,30.03,South,190,0.0,0.0,95,0.00,,,0.00,Wunderground v.1.15,2013-06-26 11:50:00,
2013-06-26 07:55:00,65.8,64.3,30.03,South,190,0.0,0.0,95,0.00,,,0.00,Wunderground v.1.15,2013-06-26 11:55:00,
2013-06-26 08:00:00,66.0,64.5,30.03,South,190,0.0,0.0,95,0.00,,,0.00,Wunderground v.1.15,2013-06-26 12:00:00,
2013-06-26 08:10:00,66.3,64.8,30.03,South,190,0.0,0.0,95,0.00,,,0.00,Wunderground v.1.15,2013-06-26 12:10:00,
2013-06-26 08:15:00,66.5,65.0,30.02,South,190,0.0,0.0,95,0.00,,,0.00,Wunderground v.1.15,2013-06-26 12:15:00,
2013-06-26 08:25:00,67.3,65.8,30.02,South,190,0.0,0.0,95,0.00,,,0.00,Wunderground v.1.15,2013-06-26 12:25:00,
2013-06-26 08:30:00,67.6,66.1,30.02,South,190,0.0,0.0,95,0.00,,,0.00,Wunderground v.1.15,2013-06-26 12:30:00,
2013-06-26 08:35:00,68.1,66.6,30.03,South,190,0.0,0.0,95,0.00,,,0.00,Wunderground v.1.15,2013-06-26 12:35:00,
2013-06-26 08:40:00,68.2,66.7,30.03,South,190,0.0,0.0,95,0.00,,,0.00,Wunderground v.1.15,2013-06-26 12:40:00,
2013-06-26 08:45:00,68.4,66.9,30.03,South,190,0.0,0.0,95,0.00,,,0.00,Wunderground v.1.15,2013-06-26 12:45:00,
2013-06-26 08:55:00,69.0,67.2,30.02,SSE,163,0.0,0.0,94,0.00,,,0.00,Wunderground v.1.15,2013-06-26 12:55:00,
2013-06-26 09:00:00,69.5,67.7,30.03,SSW,202,0.0,0.0,94,0.00,,,0.00,Wunderground v.1.15,2013-06-26 13:00:00,
2013-06-26 09:10:00,70.0,67.9,30.02,WNW,298,0.0,0.0,93,0.00,,,0.00,Wunderground v.1.15,2013-06-26 13:10:00,
2013-06-26 09:15:00,70.3,68.2,30.02,WNW,298,0.0,0.0,93,0.00,,,0.00,Wunderground v.1.15,2013-06-26 13:15:00,
2013-06-26 09:20:00,70.6,68.2,30.02,WNW,298,0.0,0.0,92,0.00,,,0.00,Wunderground v.1.15,2013-06-26 13:20:00,
2013-06-26 09:25:00,71.0,68.6,30.02,WNW,296,0.0,3.0,92,0.00,,,0.00,Wunderground v.1.15,2013-06-26 13:25:00,
2013-06-26 09:30:00,71.2,68.4,30.02,NW,304,1.0,1.0,91,0.00,,,0.00,Wunderground v.1.15,2013-06-26 13:30:00,
2013-06-26 09:40:00,71.3,68.5,30.02,NNW,337,0.0,0.0,91,0.00,,,0.00,Wunderground v.1.15,2013-06-26 13:40:00,
2013-06-26 09:45:00,71.5,68.7,30.02,NNW,337,0.0,0.0,91,0.00,,,0.00,Wunderground v.1.15,2013-06-26 13:45:00,
2013-06-26 09:55:00,71.7,68.6,30.02,NNW,332,1.0,1.0,90,0.00,,,0.00,Wunderground v.1.15,2013-06-26 13:55:00,
2013-06-26 10:00:00,72.1,69.0,30.02,SSW,212,1.0,1.0,90,0.00,,,0.00,Wunderground v.1.15,2013-06-26 14:00:00,
2013-06-26 10:05:00,72.5,69.1,30.02,West,279,1.0,1.0,89,0.00,,,0.00,Wunderground v.1.15,2013-06-26 14:05:00,
2013-06-26 10:10:00,72.8,69.4,30.01,NE,40,1.0,1.0,89,0.00,,,0.00,Wunderground v.1.15,2013-06-26 14:10:00,
2013-06-26 10:15:00,73.2,69.8,30.01,North,9,2.0,2.0,89,0.00,,,0.00,Wunderground v.1.15,2013-06-26 14:15:00,
2013-06-26 10:25:00,73.7,69.9,30.02,NW,307,0.0,2.0,88,0.00,,,0.00,Wunderground v.1.15,2013-06-26 14:25:00,
2013-06-26 10:30:00,74.0,70.2,30.01,WNW,296,0.0,0.0,88,0.00,,,0.00,Wunderground v.1.15,2013-06-26 14:30:00,
2013-06-26 10:40:00,74.4,70.3,30.01,SE,128,1.0,2.0,87,0.00,,,0.00,Wunderground v.1.15,2013-06-26 14:40:00,
2013-06-26 10:45:00,74.2,70.1,30.01,WNW,287,1.0,4.0,87,0.00,,,0.00,Wunderground v.1.15,2013-06-26 14:45:00,
2013-06-26 10:50:00,74.4,70.3,30.01,NW,326,2.0,2.0,87,0.00,,,0.00,Wunderground v.1.15,2013-06-26 14:50:00,
2013-06-26 10:55:00,74.8,70.7,30.01,NW,323,2.0,3.0,87,0.00,,,0.00,Wunderground v.1.15,2013-06-26 14:55:00,
2013-06-26 11:00:00,74.8,70.3,30.01,WNW,298,2.0,2.0,86,0.00,,,0.00,Wunderground v.1.15,2013-06-26 15:00:00,
2013-06-26 11:10:00,75.0,70.9,30.00,NW,326,1.0,1.0,87,0.00,,,0.00,Wunderground v.1.15,2013-06-26 15:10:00,
2013-06-26 11:15:00,75.0,70.9,30.00,NW,306,1.0,2.0,87,0.00,,,0.00,Wunderground v.1.15,2013-06-26 15:15:00,
2013-06-26 11:25:00,74.6,70.1,30.00,NNW,340,1.0,3.0,86,0.00,,,0.00,Wunderground v.1.15,2013-06-26 15:25:00,
2013-06-26 11:30:00,74.3,69.8,30.00,WNW,294,2.0,3.0,86,0.00,,,0.00,Wunderground v.1.15,2013-06-26 15:30:00,
2013-06-26 11:35:00,74.4,70.3,30.00,NW,306,1.0,3.0,87,0.00,,,0.00,Wunderground v.1.15,2013-06-26 15:35:00,
2013-06-26 11:45:00,75.2,71.1,30.00,NNW,328,0.0,1.0,87,0.00,,,0.00,Wunderground v.1.15,2013-06-26 15:45:00,
2013-06-26 11:55:00,75.7,70.9,29.99,North,5,1.0,2.0,85,0.00,,,0.00,Wunderground v.1.15,2013-06-26 15:55:00,
2013-06-26 12:00:00,76.1,71.3,29.99,NNE,13,1.0,1.0,85,0.00,,,0.00,Wunderground v.1.15,2013-06-26 16:00:00,
2013-06-26 12:05:00,76.4,71.6,29.99,WNW,290,1.0,1.0,85,0.00,,,0.00,Wunderground v.1.15,2013-06-26 16:05:00,
2013-06-26 12:10:00,76.7,71.5,29.99,WNW,300,1.0,3.0,84,0.00,,,0.00,Wunderground v.1.15,2013-06-26 16:10:00,
2013-06-26 12:15:00,76.6,71.4,29.99,WNW,298,2.0,3.0,84,0.00,,,0.00,Wunderground v.1.15,2013-06-26 16:15:00,
2013-06-26 12:25:00,76.7,71.1,29.99,NE,44,1.0,2.0,83,0.00,,,0.00,Wunderground v.1.15,2013-06-26 16:25:00,
2013-06-26 12:30:00,76.8,71.2,29.99,NE,35,1.0,1.0,83,0.00,,,0.00,Wunderground v.1.15,2013-06-26 16:30:00,
2013-06-26 12:40:00,76.7,70.4,30.00,North,5,1.0,1.0,81,0.00,,,0.00,Wunderground v.1.15,2013-06-26 16:40:00,
2013-06-26 12:45:00,76.5,70.6,30.00,NW,325,1.0,1.0,82,0.00,,,0.00,Wunderground v.1.15,2013-06-26 16:45:00,
2013-06-26 12:50:00,76.7,71.1,29.99,NW,305,2.0,2.0,83,0.00,,,0.00,Wunderground v.1.15,2013-06-26 16:50:00,
2013-06-26 12:55:00,76.8,70.5,30.00,NW,323,2.0,2.0,81,0.00,,,0.00,Wunderground v.1.15,2013-06-26 16:55:00,
2013-06-26 13:00:00,77.0,71.1,30.00,NW,322,2.0,2.0,82,0.00,,,0.00,Wunderground v.1.15,2013-06-26 17:00:00,
2013-06-26 13:10:00,75.5,69.6,30.01,WNW,285,4.0,5.0,82,0.00,,,0.01,Wunderground v.1.15,2013-06-26 17:10:00,
2013-06-26 13:15:00,74.2,69.1,30.01,WNW,292,4.0,5.0,84,0.18,,,0.02,Wunderground v.1.15,2013-06-26 17:15:00,
2013-06-26 13:25:00,73.5,70.1,30.01,WNW,292,0.0,1.0,89,0.07,,,0.03,Wunderground v.1.15,2013-06-26 17:25:00,
2013-06-26 13:35:00,73.4,70.0,30.00,WNW,292,0.0,0.0,89,0.00,,,0.03,Wunderground v.1.15,2013-06-26 17:35:00,
2013-06-26 13:40:00,73.5,70.4,30.00,WNW,292,0.0,0.0,90,0.00,,,0.03,Wunderground v.1.15,2013-06-26 17:40:00,
2013-06-26 13:50:00,74.2,71.4,30.00,WNW,292,0.0,0.0,91,0.00,,,0.03,Wunderground v.1.15,2013-06-26 17:50:00,
2013-06-26 13:55:00,74.5,71.7,30.00,WNW,292,0.0,1.0,91,0.00,,,0.03,Wunderground v.1.15,2013-06-26 17:55:00,
2013-06-26 14:00:00,74.7,71.9,30.00,West,273,0.0,0.0,91,0.00,,,0.03,Wunderground v.1.15,2013-06-26 18:00:00,
2013-06-26 14:10:00,75.6,72.1,29.99,West,272,0.0,0.0,89,0.00,,,0.03,Wunderground v.1.15,2013-06-26 18:10:00,
2013-06-26 14:15:00,76.2,72.7,29.99,West,271,0.0,0.0,89,0.00,,,0.03,Wunderground v.1.15,2013-06-26 18:15:00,
2013-06-26 14:20:00,76.5,72.3,29.98,South,179,0.0,2.0,87,0.00,,,0.03,Wunderground v.1.15,2013-06-26 18:20:00,
2013-06-26 14:25:00,76.4,72.2,29.98,SSE,148,1.0,2.0,87,0.00,,,0.03,Wunderground v.1.15,2013-06-26 18:25:00,
2013-06-26 14:35:00,76.2,72.0,29.98,NE,34,1.0,1.0,87,0.00,,,0.03,Wunderground v.1.15,2013-06-26 18:35:00,
2013-06-26 14:40:00,76.0,71.5,29.97,NE,49,0.0,0.0,86,0.00,,,0.03,Wunderground v.1.15,2013-06-26 18:40:00,
2013-06-26 14:45:00,76.0,71.8,29.97,East,96,0.0,0.0,87,0.00,,,0.03,Wunderground v.1.15,2013-06-26 18:45:00,
2013-06-26 14:55:00,76.3,72.5,29.97,WNW,296,0.0,2.0,88,0.00,,,0.03,Wunderground v.1.15,2013-06-26 18:55:00,
2013-06-26 15:00:00,76.5,72.7,29.97,NW,314,0.0,0.0,88,0.00,,,0.03,Wunderground v.1.15,2013-06-26 19:00:00,
2013-06-26 15:10:00,77.1,72.2,29.95,West,268,0.0,3.0,85,0.00,,,0.03,Wunderground v.1.15,2013-06-26 19:10:00,
2013-06-26 15:15:00,77.1,71.5,29.95,NNW,330,1.0,3.0,83,0.00,,,0.03,Wunderground v.1.15,2013-06-26 19:15:00,
2013-06-26 15:20:00,77.3,71.7,29.95,West,273,2.0,2.0,83,0.00,,,0.03,Wunderground v.1.15,2013-06-26 19:20:00,
2013-06-26 15:25:00,77.4,71.8,29.94,South,171,1.0,2.0,83,0.00,,,0.03,Wunderground v.1.15,2013-06-26 19:25:00,
2013-06-26 15:30:00,77.6,72.7,29.95,NW,317,1.0,1.0,85,0.00,,,0.03,Wunderground v.1.15,2013-06-26 19:30:00,
2013-06-26 15:40:00,77.8,72.2,29.94,NW,306,0.0,0.0,83,0.00,,,0.03,Wunderground v.1.15,2013-06-26 19:40:00,
2013-06-26 15:45:00,77.9,72.3,29.94,NW,320,1.0,1.0,83,0.00,,,0.03,Wunderground v.1.15,2013-06-26 19:45:00,
2013-06-26 15:55:00,78.0,72.4,29.93,SW,224,1.0,1.0,83,0.00,,,0.03,Wunderground v.1.15,2013-06-26 19:55:00,
2013-06-26 16:00:00,78.3,72.7,29.93,SW,225,1.0,1.0,83,0.00,,,0.03,Wunderground v.1.15,2013-06-26 20:00:00,
2013-06-26 16:05:00,78.6,72.6,29.93,SW,225,0.0,1.0,82,0.00,,,0.03,Wunderground v.1.15,2013-06-26 20:05:00,
2013-06-26 16:10:00,78.7,72.7,29.93,East,88,0.0,0.0,82,0.00,,,0.03,Wunderground v.1.15,2013-06-26 20:10:00,
2013-06-26 16:15:00,78.8,73.6,29.93,North,5,0.0,0.0,84,0.00,,,0.03,Wunderground v.1.15,2013-06-26 20:15:00,
2013-06-26 16:25:00,78.5,72.2,29.92,NW,306,0.0,1.0,81,0.00,,,0.03,Wunderground v.1.15,2013-06-26 20:25:00,
2013-06-26 16:35:00,77.9,72.7,29.92,NW,306,0.0,0.0,84,0.00,,,0.03,Wunderground v.1.15,2013-06-26 20:35:00,
2013-06-26 16:40:00,77.5,72.6,29.92,NW,306,0.0,0.0,85,0.00,,,0.03,Wunderground v.1.15,2013-06-26 20:40:00,
2013-06-26 16:45:00,78.0,73.5,29.92,NW,306,0.0,0.0,86,0.00,,,0.03,Wunderground v.1.15,2013-06-26 20:45:00,
2013-06-26 16:55:00,78.0,72.4,29.91,WNW,290,0.0,0.0,83,0.00,,,0.03,Wunderground v.1.15,2013-06-26 20:55:00,
2013-06-26 17:00:00,78.1,73.2,29.91,WNW,290,0.0,0.0,85,0.00,,,0.03,Wunderground v.1.15,2013-06-26 21:00:00,
2013-06-26 17:05:00,77.8,71.9,29.91,WNW,290,0.0,0.0,82,0.00,,,0.03,Wunderground v.1.15,2013-06-26 21:05:00,
2013-06-26 17:10:00,77.8,72.9,29.91,WNW,290,0.0,0.0,85,0.00,,,0.03,Wunderground v.1.15,2013-06-26 21:10:00,
2013-06-26 17:15:00,77.3,72.8,29.90,WNW,290,0.0,0.0,86,0.00,,,0.03,Wunderground v.1.15,2013-06-26 21:15:00,
2013-06-26 17:25:00,76.4,72.2,29.91,WNW,290,0.0,0.0,87,0.00,,,0.03,Wunderground v.1.15,2013-06-26 21:25:00,
2013-06-26 17:30:00,76.0,71.8,29.91,WNW,290,0.0,0.0,87,0.00,,,0.03,Wunderground v.1.15,2013-06-26 21:30:00,
2013-06-26 17:40:00,75.6,71.8,29.90,WNW,290,0.0,0.0,88,0.00,,,0.03,Wunderground v.1.15,2013-06-26 21:40:00,
2013-06-26 17:45:00,75.5,71.7,29.90,WNW,290,0.0,0.0,88,0.00,,,0.03,Wunderground v.1.15,2013-06-26 21:45:00,
2013-06-26 17:55:00,75.3,71.5,29.90,WNW,290,0.0,0.0,88,0.00,,,0.03,Wunderground v.1.15,2013-06-26 21:55:00,
2013-06-26 18:00:00,75.2,71.4,29.90,WNW,290,0.0,0.0,88,0.00,,,0.03,Wunderground v.1.15,2013-06-26 22:00:00,
2013-06-26 18:10:00,74.8,71.3,29.90,WNW,290,0.0,0.0,89,0.00,,,0.03,Wunderground v.1.15,2013-06-26 22:10:00,
2013-06-26 18:15:00,74.8,71.3,29.91,NW,304,0.0,1.0,89,0.00,,,0.04,Wunderground v.1.15,2013-06-26 22:15:00,
2013-06-26 18:20:00,74.5,71.0,29.91,NW,321,1.0,2.0,89,0.28,,,0.06,Wunderground v.1.15,2013-06-26 22:20:00,
2013-06-26 18:25:00,74.0,70.6,29.92,NW,321,1.0,2.0,89,0.17,,,0.07,Wunderground v.1.15,2013-06-26 22:25:00,
2013-06-26 18:30:00,73.7,70.6,29.92,NW,322,0.0,0.0,90,0.07,,,0.07,Wunderground v.1.15,2013-06-26 22:30:00,
2013-06-26 18:40:00,73.8,71.0,29.92,NW,321,0.0,0.0,91,0.00,,,0.07,Wunderground v.1.15,2013-06-26 22:40:00,
2013-06-26 18:45:00,73.9,71.1,29.92,NW,322,0.0,0.0,91,0.00,,,0.07,Wunderground v.1.15,2013-06-26 22:45:00,
2013-06-26 18:55:00,74.4,71.6,29.92,NW,322,0.0,0.0,91,0.00,,,0.07,Wunderground v.1.15,2013-06-26 22:55:00,
2013-06-26 19:05:00,74.6,70.8,29.92,NW,321,0.0,0.0,88,0.00,,,0.07,Wunderground v.1.15,2013-06-26 23:05:00,
2013-06-26 19:10:00,74.3,69.8,29.92,East,85,1.0,1.0,86,0.00,,,0.07,Wunderground v.1.15,2013-06-26 23:10:00,
2013-06-26 19:15:00,74.0,70.2,29.93,East,98,1.0,1.0,88,0.00,,,0.07,Wunderground v.1.15,2013-06-26 23:15:00,
2013-06-26 19:25:00,73.7,69.6,29.92,WNW,301,1.0,2.0,87,0.00,,,0.07,Wunderground v.1.15,2013-06-26 23:25:00,
2013-06-26 19:30:00,73.7,70.3,29.93,WNW,302,1.0,1.0,89,0.00,,,0.07,Wunderground v.1.15,2013-06-26 23:30:00,
2013-06-26 19:40:00,73.1,69.3,29.93,WNW,302,0.0,0.0,88,0.00,,,0.07,Wunderground v.1.15,2013-06-26 23:40:00,
2013-06-26 19:45:00,72.8,69.4,29.92,WNW,302,0.0,0.0,89,0.00,,,0.07,Wunderground v.1.15,2013-06-26 23:45:00,
2013-06-26 19:50:00,72.4,69.0,29.92,WNW,302,0.0,0.0,89,0.00,,,0.07,Wunderground v.1.15,2013-06-26 23:50:00,
2013-06-26 19:55:00,72.2,68.8,29.92,WNW,302,0.0,0.0,89,0.00,,,0.07,Wunderground v.1.15,2013-06-26 23:55:00,
2013-06-26 20:00:00,72.0,68.9,29.92,WNW,302,0.0,0.0,90,0.00,,,0.07,Wunderground v.1.15,2013-06-27 00:00:00,
2013-06-26 20:10:00,71.6,68.5,29.92,WNW,302,0.0,0.0,90,0.00,,,0.07,Wunderground v.1.15,2013-06-27 00:10:00,
2013-06-26 20:15:00,71.5,68.4,29.92,WNW,302,0.0,0.0,90,0.00,,,0.07,Wunderground v.1.15,2013-06-27 00:15:00,
2013-06-26 20:25:00,71.0,67.9,29.92,WNW,302,0.0,0.0,90,0.00,,,0.07,Wunderground v.1.15,2013-06-27 00:25:00,
2013-06-26 20:30:00,70.5,67.4,29.91,WNW,302,0.0,0.0,90,0.00,,,0.07,Wunderground v.1.15,2013-06-27 00:30:00,
2013-06-26 20:35:00,70.0,66.9,29.92,WNW,302,0.0,0.0,90,0.00,,,0.07,Wunderground v.1.15,2013-06-27 00:35:00,
2013-06-26 20:40:00,69.4,66.3,29.91,WNW,302,0.0,0.0,90,0.00,,,0.07,Wunderground v.1.15,2013-06-27 00:40:00,
2013-06-26 20:50:00,68.6,65.9,29.91,WNW,302,0.0,0.0,91,0.00,,,0.07,Wunderground v.1.15,2013-06-27 00:50:00,
2013-06-26 20:55:00,68.3,65.6,29.91,WNW,302,0.0,0.0,91,0.00,,,0.07,Wunderground v.1.15,2013-06-27 00:55:00,
2013-06-26 21:00:00,68.2,65.5,29.91,WNW,302,0.0,0.0,91,0.00,,,0.07,Wunderground v.1.15,2013-06-27 01:00:00,
2013-06-26 21:10:00,67.8,65.4,29.90,WNW,302,0.0,0.0,92,0.00,,,0.07,Wunderground v.1.15,2013-06-27 01:10:00,
2013-06-26 21:15:00,67.7,65.3,29.90,WNW,302,0.0,0.0,92,0.00,,,0.07,Wunderground v.1.15,2013-06-27 01:15:00,
2013-06-26 21:20:00,67.5,65.1,29.90,WNW,302,0.0,0.0,92,0.00,,,0.07,Wunderground v.1.15,2013-06-27 01:20:00,
2013-06-26 21:25:00,67.4,65.0,29.91,WNW,302,0.0,0.0,92,0.00,,,0.07,Wunderground v.1.15,2013-06-27 01:25:00,
2013-06-26 21:30:00,67.2,64.8,29.91,WNW,302,0.0,0.0,92,0.00,,,0.07,Wunderground v.1.15,2013-06-27 01:30:00,
2013-06-26 21:40:00,66.8,64.4,29.92,WNW,302,0.0,0.0,92,0.00,,,0.07,Wunderground v.1.15,2013-06-27 01:40:00,
2013-06-26 21:45:00,66.7,64.6,29.92,WNW,302,0.0,0.0,93,0.00,,,0.07,Wunderground v.1.15,2013-06-27 01:45:00,
2013-06-26 21:55:00,66.6,64.5,29.92,WNW,302,0.0,0.0,93,0.00,,,0.07,Wunderground v.1.15,2013-06-27 01:55:00,
2013-06-26 22:00:00,66.5,64.4,29.92,WNW,302,0.0,0.0,93,0.00,,,0.07,Wunderground v.1.15,2013-06-27 02:00:00,
2013-06-26 22:10:00,66.4,64.3,29.92,WNW,302,0.0,0.0,93,0.00,,,0.07,Wunderground v.1.15,2013-06-27 02:10:00,
2013-06-26 22:15:00,66.4,64.3,29.92,WNW,302,0.0,0.0,93,0.00,,,0.07,Wunderground v.1.15,2013-06-27 02:15:00,
2013-06-26 22:25:00,66.1,64.0,29.93,WNW,302,0.0,0.0,93,0.00,,,0.07,Wunderground v.1.15,2013-06-27 02:25:00,
2013-06-26 22:30:00,66.0,63.9,29.93,WNW,302,0.0,0.0,93,0.00,,,0.07,Wunderground v.1.15,2013-06-27 02:30:00,
2013-06-26 22:35:00,66.0,64.2,29.93,WNW,302,0.0,0.0,94,0.00,,,0.07,Wunderground v.1.15,2013-06-27 02:35:00,
2013-06-26 22:40:00,66.0,64.2,29.92,WNW,302,0.0,0.0,94,0.00,,,0.07,Wunderground v.1.15,2013-06-27 02:40:00,
2013-06-26 22:45:00,65.9,64.1,29.93,WNW,302,0.0,0.0,94,0.00,,,0.07,Wunderground v.1.15,2013-06-27 02:45:00,
2013-06-26 22:55:00,65.8,64.0,29.92,WNW,302,0.0,0.0,94,0.00,,,0.07,Wunderground v.1.15,2013-06-27 02:55:00,
2013-06-26 23:00:00,65.7,63.9,29.92,WNW,302,0.0,0.0,94,0.00,,,0.07,Wunderground v.1.15,2013-06-27 03:00:00,
2013-06-26 23:10:00,65.5,63.7,29.93,WNW,302,0.0,0.0,94,0.00,,,0.07,Wunderground v.1.15,2013-06-27 03:10:00,
2013-06-26 23:20:00,65.4,63.6,29.93,WNW,302,0.0,0.0,94,0.00,,,0.07,Wunderground v.1.15,2013-06-27 03:20:00,
2013-06-26 23:25:00,65.3,63.5,29.93,WNW,302,0.0,0.0,94,0.00,,,0.07,Wunderground v.1.15,2013-06-27 03:25:00,
2013-06-26 23:30:00,65.3,63.5,29.93,WNW,302,0.0,0.0,94,0.00,,,0.07,Wunderground v.1.15,2013-06-27 03:30:00,
2013-06-26 23:35:00,65.2,63.4,29.93,WNW,302,0.0,0.0,94,0.00,,,0.07,Wunderground v.1.15,2013-06-27 03:35:00,
2013-06-26 23:40:00,65.2,63.4,29.93,WNW,302,0.0,0.0,94,0.00,,,0.07,Wunderground v.1.15,2013-06-27 03:40:00,
2013-06-26 23:45:00,65.2,63.4,29.92,WNW,302,0.0,0.0,94,0.00,,,0.07,Wunderground v.1.15,2013-06-27 03:45:00,
2013-06-26 23:55:00,65.0,63.2,29.93,WNW,302,0.0,0.0,94,0.00,,,0.07,Wunderground v.1.15,2013-06-27 03:55:00,